createdAt,value
2022-08-17T00:01:13.888Z,20.1
2022-08-17T00:03:15.802Z,20
2022-08-17T00:05:17.768Z,20
2022-08-17T00:07:19.774Z,19.9
2022-08-17T00:11:26.789Z,19.8
2022-08-17T00:13:28.766Z,19.8
2022-08-17T00:15:30.733Z,19.8
2022-08-17T00:20:37.207Z,19.8
2022-08-17T00:22:39.195Z,19.8
2022-08-17T00:26:46.232Z,19.7
2022-08-17T00:28:48.226Z,19.7
2022-08-17T00:30:53.130Z,19.6
2022-08-17T00:33:15.526Z,19.6
2022-08-17T00:34:54.153Z,19.6
2022-08-17T00:36:56.115Z,19.5
2022-08-17T00:39:01.180Z,19.4
2022-08-17T00:41:03.182Z,19.4
2022-08-17T00:45:07.113Z,19.3
2022-08-17T00:47:09.108Z,19.4
2022-08-17T00:49:11.095Z,19.4
2022-08-17T00:53:18.134Z,19.4
2022-08-17T00:55:20.132Z,19.4
2022-08-17T00:57:22.114Z,19.4
2022-08-17T00:59:24.093Z,19.3
2022-08-17T01:01:26.113Z,19.3
2022-08-17T01:03:28.072Z,19.3
2022-08-17T01:05:30.106Z,19.3
2022-08-17T01:07:35.137Z,19.3
2022-08-17T01:09:37.135Z,19.2
2022-08-17T01:11:39.102Z,19.2
2022-08-17T01:12:41.638Z,19.2
2022-08-17T01:18:47.587Z,19.1
2022-08-17T01:35:09.696Z,18.9
2022-08-17T01:37:11.701Z,18.9
2022-08-17T01:39:13.692Z,18.9
2022-08-17T01:41:15.698Z,18.9
2022-08-17T01:43:17.662Z,18.8
2022-08-17T01:45:19.662Z,18.8
2022-08-17T01:47:21.657Z,18.8
2022-08-17T01:49:27.173Z,18.8
2022-08-17T01:51:29.167Z,18.7
2022-08-17T01:53:31.158Z,18.7
2022-08-17T01:57:35.141Z,18.8
2022-08-17T01:59:37.153Z,18.8
2022-08-17T02:01:39.216Z,18.8
2022-08-17T02:03:59.286Z,18.7
2022-08-17T02:05:46.231Z,18.7
2022-08-17T02:08:00.219Z,18.6
2022-08-17T02:10:05.059Z,18.6
2022-08-17T02:12:37.638Z,18.6
2022-08-17T02:14:09.064Z,18.6
2022-08-17T02:16:14.149Z,18.5
2022-08-17T02:18:16.135Z,18.5
2022-08-17T02:20:18.140Z,18.6
2022-08-17T02:22:20.161Z,18.5
2022-08-17T02:25:01.076Z,18.6
2022-08-17T02:26:25.999Z,18.6
2022-08-17T02:28:26.148Z,18.7
2022-08-17T02:30:50.199Z,18.7
2022-08-17T02:32:33.213Z,18.6
2022-08-17T02:34:35.227Z,18.6
2022-08-17T02:36:37.213Z,18.6
2022-08-17T02:38:39.223Z,18.7
2022-08-17T02:42:43.272Z,18.7
2022-08-17T02:46:50.285Z,18.8
2022-08-17T02:53:02.432Z,18.8
2022-08-17T02:54:58.295Z,18.8
2022-08-17T02:57:00.309Z,18.8
2022-08-17T02:59:05.388Z,18.9
2022-08-17T03:01:07.394Z,18.9
2022-08-17T03:03:09.360Z,18.9
2022-08-17T03:04:11.902Z,19
2022-08-17T03:06:13.893Z,19
2022-08-17T03:08:15.910Z,19
2022-08-17T03:10:17.913Z,19.1
2022-08-17T03:12:22.986Z,19.1
2022-08-17T03:14:26.110Z,19.1
2022-08-17T03:16:26.937Z,19.1
2022-08-17T03:18:28.929Z,19.1
2022-08-17T03:20:30.919Z,19.1
2022-08-17T03:22:36.540Z,19.1
2022-08-17T03:24:34.888Z,19.1
2022-08-17T03:26:39.953Z,19.1
2022-08-17T03:28:41.936Z,19
2022-08-17T03:30:43.913Z,19
2022-08-17T03:32:45.894Z,19
2022-08-17T03:36:49.881Z,19
2022-08-17T03:38:53.379Z,19
2022-08-17T03:40:59.696Z,19
2022-08-17T03:43:00.368Z,19
2022-08-17T03:45:02.358Z,19
2022-08-17T03:47:04.366Z,19
2022-08-17T03:51:12.779Z,19
2022-08-17T03:55:15.410Z,19.1
2022-08-17T04:00:21.900Z,19
2022-08-17T04:02:23.893Z,19.1
2022-08-17T04:04:27.791Z,19.1
2022-08-17T04:08:32.959Z,19.1
2022-08-17T04:10:34.951Z,19.1
2022-08-17T04:12:36.931Z,19.1
2022-08-17T04:14:52.700Z,19.1
2022-08-17T04:16:40.917Z,19.1
2022-08-17T04:18:42.890Z,19
2022-08-17T04:20:44.882Z,19
2022-08-17T04:22:50.195Z,19.1
2022-08-17T04:24:51.947Z,19.1
2022-08-17T04:26:54.698Z,19.1
2022-08-17T04:28:55.917Z,19.1
2022-08-17T04:30:57.907Z,19.1
2022-08-17T04:33:05.951Z,19.1
2022-08-17T04:35:01.875Z,19
2022-08-17T04:37:06.929Z,19
2022-08-17T04:39:08.931Z,19
2022-08-17T04:43:12.905Z,19
2022-08-17T04:45:14.884Z,19
2022-08-17T04:51:23.944Z,19
2022-08-17T04:55:27.907Z,19.1
2022-08-17T04:56:30.503Z,19.1
2022-08-17T04:58:32.461Z,19.1
2022-08-17T05:02:36.447Z,19.1
2022-08-17T05:06:43.490Z,19.2
2022-08-17T05:08:45.458Z,19.2
2022-08-17T05:10:47.459Z,19.3
2022-08-17T05:12:49.703Z,19.3
2022-08-17T05:14:51.421Z,19.4
2022-08-17T05:16:53.415Z,19.4
2022-08-17T05:23:02.461Z,19.5
2022-08-17T05:25:04.419Z,19.5
2022-08-17T05:27:06.821Z,19.7
2022-08-17T05:33:15.446Z,19.9
2022-08-17T05:41:23.347Z,19.9
2022-08-17T05:47:32.373Z,20
2022-08-17T05:49:34.337Z,19.9
2022-08-17T05:51:36.346Z,19.8
2022-08-17T05:53:59.181Z,19.8
2022-08-17T05:56:01.159Z,19.8
2022-08-17T05:58:03.130Z,19.8
2022-08-17T06:00:08.195Z,19.7
2022-08-17T06:02:10.144Z,19.7
2022-08-17T06:04:12.154Z,19.7
2022-08-17T06:06:14.115Z,19.7
2022-08-17T06:14:25.131Z,19.8
2022-08-17T06:16:34.412Z,19.9
2022-08-17T06:18:29.049Z,19.9
2022-08-17T06:20:31.063Z,19.9
2022-08-17T06:22:33.024Z,20
2022-08-17T06:24:35.003Z,20.1
2022-08-17T06:26:42.322Z,20.3
2022-08-17T06:28:42.045Z,21
2022-08-17T06:30:59.252Z,21.3
2022-08-17T06:32:46.123Z,22.6
2022-08-17T06:34:47.980Z,23.3
2022-08-17T06:38:51.885Z,23.3
2022-08-17T06:40:53.871Z,22.4
2022-08-17T06:43:06.710Z,21.5
2022-08-17T06:47:02.834Z,21.1
2022-08-17T06:48:05.963Z,20.9
2022-08-17T06:50:07.279Z,20.9
2022-08-17T06:52:09.234Z,20.9
2022-08-17T06:54:11.173Z,21
2022-08-17T06:56:16.230Z,20.9
2022-08-17T06:58:18.173Z,21
2022-08-17T07:00:20.132Z,21
2022-08-17T07:02:29.198Z,21
2022-08-17T07:04:24.022Z,21
2022-08-17T07:06:25.957Z,21.1
2022-08-17T07:10:32.957Z,21.3
2022-08-17T07:20:42.674Z,21.4
2022-08-17T07:22:57.238Z,21.5
2022-08-17T07:28:53.542Z,21.7
2022-08-17T07:39:06.301Z,23.1
2022-08-17T07:44:12.663Z,22.7
2022-08-17T07:46:14.596Z,22.7
2022-08-17T07:48:16.499Z,22.6
2022-08-17T07:50:22.672Z,22.4
2022-08-17T07:52:47.825Z,22.1
2022-08-17T07:54:25.335Z,22
2022-08-17T07:56:27.264Z,22.1
2022-08-17T07:58:29.165Z,22.5
2022-08-17T08:00:32.058Z,22.8
2022-08-17T08:02:33.847Z,23.8
2022-08-17T08:04:59.292Z,24.1
2022-08-17T08:06:39.979Z,24.6
2022-08-17T08:08:41.834Z,23.8
2022-08-17T08:10:45.295Z,23.4
2022-08-17T08:12:45.701Z,23.4
2022-08-17T08:14:47.577Z,23.1
2022-08-17T08:16:49.457Z,23
2022-08-17T08:18:55.493Z,22.9
2022-08-17T08:20:56.342Z,22.4
2022-08-17T08:22:58.238Z,22.4
2022-08-17T08:25:00.154Z,22.5
2022-08-17T08:27:02.036Z,22.3
2022-08-17T08:29:03.953Z,22.6
2022-08-17T08:31:05.858Z,22.6
2022-08-17T08:33:07.747Z,22.6
2022-08-17T08:35:12.748Z,22.6
2022-08-17T08:37:20.618Z,22.6
2022-08-17T08:39:16.551Z,22.5
2022-08-17T08:40:19.064Z,22.3
2022-08-17T08:42:21.065Z,22.3
2022-08-17T08:44:22.858Z,22.7
2022-08-17T08:46:24.766Z,23.1
2022-08-17T08:50:38.285Z,22.8
2022-08-17T08:52:33.586Z,22.9
2022-08-17T08:54:35.474Z,22.9
2022-08-17T08:56:37.381Z,23.1
2022-08-17T08:58:41.638Z,23.1
2022-08-17T09:00:41.191Z,23.2
2022-08-17T09:02:46.182Z,23.4
2022-08-17T09:05:12.902Z,23.6
2022-08-17T09:06:50.001Z,23.7
2022-08-17T09:08:51.894Z,23.8
2022-08-17T09:10:53.795Z,23.9
2022-08-17T09:12:55.690Z,23.7
2022-08-17T09:14:57.599Z,23.9
2022-08-17T09:17:02.545Z,24.5
2022-08-17T09:19:05.162Z,24.4
2022-08-17T09:21:06.336Z,23.8
2022-08-17T09:25:10.103Z,24
2022-08-17T09:27:11.997Z,24.1
2022-08-17T09:29:13.856Z,24.3
2022-08-17T09:31:20.350Z,23.9
2022-08-17T09:33:22.806Z,24.2
2022-08-17T09:35:24.691Z,24.4
2022-08-17T09:37:47.026Z,24.5
2022-08-17T09:39:48.931Z,24.7
2022-08-17T09:41:50.742Z,25.1
2022-08-17T09:43:55.686Z,25.6
2022-08-17T09:45:57.569Z,25.5
2022-08-17T09:47:59.409Z,25.3
2022-08-17T09:50:01.262Z,25.3
2022-08-17T09:52:03.129Z,25.7
2022-08-17T09:54:34.747Z,25.3
2022-08-17T09:56:06.831Z,25.4
2022-08-17T09:58:11.784Z,25.3
2022-08-17T10:00:13.611Z,25.1
2022-08-17T10:02:15.459Z,24.8
2022-08-17T10:04:20.062Z,24.9
2022-08-17T10:06:22.261Z,24.9
2022-08-17T10:10:22.810Z,24.8
2022-08-17T10:12:28.282Z,24.6
2022-08-17T10:14:36.429Z,24.5
2022-08-17T10:16:31.472Z,24.2
2022-08-17T10:18:33.447Z,23.9
2022-08-17T10:20:35.146Z,23.6
2022-08-17T10:22:38.136Z,23.6
2022-08-17T10:24:38.846Z,23.7
2022-08-17T10:26:55.982Z,24
2022-08-17T10:28:45.614Z,24.1
2022-08-17T10:30:47.484Z,24.2
2022-08-17T10:31:49.963Z,24.3
2022-08-17T10:33:51.798Z,24.1
2022-08-17T10:35:53.668Z,24.2
2022-08-17T10:37:55.523Z,24.5
2022-08-17T10:40:00.560Z,24
2022-08-17T10:42:02.332Z,23.8
2022-08-17T10:46:29.893Z,24.2
2022-08-17T10:48:08.234Z,24.2
2022-08-17T10:50:09.752Z,24.3
2022-08-17T10:52:11.606Z,24.7
2022-08-17T10:54:16.585Z,24.8
2022-08-17T10:56:18.446Z,24.8
2022-08-17T10:58:20.304Z,25
2022-08-17T11:00:27.442Z,25
2022-08-17T11:02:23.981Z,24.6
2022-08-17T11:04:25.856Z,24.8
2022-08-17T11:06:27.710Z,25.1
2022-08-17T11:08:32.659Z,24.5
2022-08-17T11:10:34.495Z,24.3
2022-08-17T11:12:36.349Z,24.3
2022-08-17T11:14:38.205Z,24.2
2022-08-17T11:16:40.036Z,24
2022-08-17T11:18:41.907Z,24
2022-08-17T11:22:48.826Z,24.4
2022-08-17T11:24:50.556Z,24.4
2022-08-17T11:26:52.402Z,24.7
2022-08-17T11:27:54.891Z,24.3
2022-08-17T11:30:01.448Z,24.3
2022-08-17T11:31:58.578Z,24.2
2022-08-17T11:34:00.459Z,24.2
2022-08-17T11:36:05.398Z,24.8
2022-08-17T11:38:10.831Z,25
2022-08-17T11:40:09.153Z,24.9
2022-08-17T11:42:10.947Z,25
2022-08-17T11:44:12.784Z,24.7
2022-08-17T11:46:14.641Z,24.5
2022-08-17T11:48:27.682Z,24.5
2022-08-17T11:50:24.538Z,24.8
2022-08-17T11:52:23.265Z,24.8
2022-08-17T11:54:33.305Z,24.6
2022-08-17T11:56:26.951Z,24.5
2022-08-17T11:58:28.807Z,24.5
2022-08-17T12:00:30.651Z,24.3
2022-08-17T12:02:32.795Z,24.2
2022-08-17T12:04:37.505Z,24.1
2022-08-17T12:06:39.317Z,24
2022-08-17T12:08:41.164Z,23.9
2022-08-17T12:10:43.011Z,23.8
2022-08-17T12:12:44.870Z,23.8
2022-08-17T12:15:08.402Z,23.7
2022-08-17T12:16:48.595Z,23.8
2022-08-17T12:18:53.557Z,23.9
2022-08-17T12:20:56.818Z,24
2022-08-17T12:22:57.292Z,24
2022-08-17T12:23:59.769Z,23.8
2022-08-17T12:26:01.613Z,23.7
2022-08-17T12:28:05.646Z,23.6
2022-08-17T12:30:05.348Z,23.6
2022-08-17T12:32:10.361Z,23.5
2022-08-17T12:34:12.214Z,23.5
2022-08-17T12:36:14.073Z,23.5
2022-08-17T12:38:26.769Z,23.7
2022-08-17T12:42:19.702Z,23.9
2022-08-17T12:44:21.576Z,24
2022-08-17T12:48:28.427Z,24.4
2022-08-17T12:50:30.419Z,24.4
2022-08-17T12:52:32.162Z,24.5
2022-08-17T12:54:34.062Z,24.6
2022-08-17T12:56:35.927Z,24.3
2022-08-17T12:58:37.813Z,24
2022-08-17T13:00:47.280Z,23.6
2022-08-17T13:02:44.636Z,23.5
2022-08-17T13:04:46.546Z,23.2
2022-08-17T13:06:48.383Z,23.1
2022-08-17T13:08:50.260Z,23
2022-08-17T13:10:52.128Z,22.8
2022-08-17T13:12:54.014Z,22.7
2022-08-17T13:14:59.013Z,22.5
2022-08-17T13:17:00.857Z,22.5
2022-08-17T13:19:03.800Z,22.4
2022-08-17T13:21:25.325Z,22.2
2022-08-17T13:23:27.202Z,22.2
2022-08-17T13:25:29.088Z,22.1
2022-08-17T13:27:34.095Z,22
2022-08-17T13:29:35.978Z,22
2022-08-17T13:31:50.426Z,21.9
2022-08-17T13:33:44.936Z,21.9
2022-08-17T13:35:41.717Z,21.9
2022-08-17T13:37:43.686Z,21.7
2022-08-17T13:39:45.560Z,21.7
2022-08-17T13:41:50.548Z,21.7
2022-08-17T13:43:52.463Z,21.7
2022-08-17T13:45:54.371Z,21.7
2022-08-17T13:47:56.281Z,21.7
2022-08-17T13:49:58.208Z,21.8
2022-08-17T13:52:00.161Z,21.8
2022-08-17T13:54:02.056Z,21.8
2022-08-17T13:56:07.113Z,21.8
2022-08-17T13:58:08.993Z,21.8
2022-08-17T14:00:10.923Z,21.9
2022-08-17T14:02:12.833Z,21.9
2022-08-17T14:04:14.763Z,22
2022-08-17T14:06:49.275Z,22.1
2022-08-17T14:08:18.642Z,22.1
2022-08-17T14:10:23.648Z,21.9
2022-08-17T14:12:25.576Z,21.8
2022-08-17T14:14:27.498Z,21.7
2022-08-17T14:15:56.299Z,21.5
2022-08-17T14:17:37.944Z,21.5
2022-08-17T14:19:33.840Z,21.5
2022-08-17T14:23:40.805Z,21.6
2022-08-17T14:25:42.733Z,21.6
2022-08-17T14:27:52.839Z,21.7
2022-08-17T14:29:46.580Z,21.7
2022-08-17T14:31:53.341Z,21.7
2022-08-17T14:33:50.440Z,21.6
2022-08-17T14:35:52.383Z,21.7
2022-08-17T14:37:57.407Z,21.6
2022-08-17T14:39:59.356Z,21.6
2022-08-17T14:42:01.271Z,21.7
2022-08-17T14:44:03.207Z,21.8
2022-08-17T14:46:05.125Z,22
2022-08-17T14:48:07.044Z,22
2022-08-17T14:50:08.971Z,22
2022-08-17T14:52:13.985Z,22
2022-08-17T14:54:33.652Z,22
2022-08-17T14:56:17.840Z,22
2022-08-17T14:58:19.770Z,21.9
2022-08-17T15:00:21.675Z,21.9
2022-08-17T15:02:29.532Z,21.9
2022-08-17T15:06:30.560Z,21.8
2022-08-17T15:08:32.458Z,21.8
2022-08-17T15:10:34.391Z,21.7
2022-08-17T15:11:36.892Z,21.6
2022-08-17T15:13:38.805Z,21.6
2022-08-17T15:17:44.880Z,21.7
2022-08-17T15:19:47.682Z,21.6
2022-08-17T15:21:49.594Z,21.7
2022-08-17T15:23:53.033Z,21.8
2022-08-17T15:25:54.936Z,22.1
2022-08-17T15:27:56.836Z,22.3
2022-08-17T15:29:58.777Z,22.6
2022-08-17T15:32:00.963Z,23
2022-08-17T15:34:05.692Z,23.9
2022-08-17T15:36:07.601Z,23.9
2022-08-17T15:38:12.115Z,23.9
2022-08-17T15:40:11.666Z,23.8
2022-08-17T15:42:13.281Z,23.2
2022-08-17T15:44:15.168Z,22.9
2022-08-17T15:46:17.076Z,22.6
2022-08-17T15:52:25.835Z,22
2022-08-17T15:54:31.778Z,22
2022-08-17T15:56:29.605Z,21.8
2022-08-17T16:00:36.410Z,21.6
2022-08-17T16:03:29.440Z,21.5
2022-08-17T16:09:46.611Z,21.4
2022-08-17T16:11:53.654Z,21.4
2022-08-17T16:13:54.776Z,21.5
2022-08-17T16:17:57.340Z,21.2
2022-08-17T16:19:59.229Z,21.2
2022-08-17T16:22:01.134Z,21.1
2022-08-17T16:24:03.065Z,21.2
2022-08-17T16:28:06.942Z,21.2
2022-08-17T16:30:16.887Z,21.1
2022-08-17T16:32:13.823Z,21.1
2022-08-17T16:34:18.551Z,21.1
2022-08-17T16:36:17.683Z,21.1
2022-08-17T16:38:19.605Z,21.1
2022-08-17T16:40:21.536Z,21.1
2022-08-17T16:42:23.466Z,21
2022-08-17T16:44:28.488Z,21
2022-08-17T16:46:30.456Z,21
2022-08-17T16:48:32.349Z,21
2022-08-17T16:50:34.264Z,21
2022-08-17T16:52:36.202Z,21
2022-08-17T16:54:38.137Z,21
2022-08-17T16:56:40.075Z,21
2022-08-17T16:58:45.114Z,21.2
2022-08-17T17:00:47.065Z,21.2
2022-08-17T17:02:48.959Z,21.2
2022-08-17T17:05:05.858Z,21.3
2022-08-17T17:07:07.742Z,21.3
2022-08-17T17:09:09.666Z,21.3
2022-08-17T17:13:16.635Z,21.5
2022-08-17T17:17:20.502Z,21.5
2022-08-17T17:19:34.499Z,21.4
2022-08-17T17:21:24.359Z,21.4
2022-08-17T17:23:38.154Z,21.3
2022-08-17T17:25:31.307Z,21.2
2022-08-17T17:27:33.236Z,21.2
2022-08-17T17:29:47.295Z,21.2
2022-08-17T17:31:37.088Z,21.2
2022-08-17T17:33:39.036Z,21.1
2022-08-17T17:35:40.958Z,21.1
2022-08-17T17:37:42.901Z,21.1
2022-08-17T17:39:47.926Z,21.1
2022-08-17T17:41:49.852Z,21.1
2022-08-17T17:43:51.777Z,21
2022-08-17T17:45:53.705Z,21
2022-08-17T17:49:57.570Z,21
2022-08-17T17:52:11.084Z,20.9
2022-08-17T17:56:06.493Z,20.7
2022-08-17T17:58:08.408Z,20.7
2022-08-17T17:59:12.555Z,20.7
2022-08-17T18:01:12.872Z,20.8
2022-08-17T18:03:14.811Z,20.8
2022-08-17T18:05:16.738Z,20.7
2022-08-17T18:07:21.774Z,20.5
2022-08-17T18:09:23.716Z,20.5
2022-08-17T18:11:25.640Z,20.4
2022-08-17T18:13:27.591Z,20.5
2022-08-17T18:15:29.535Z,20.4
2022-08-17T18:17:31.460Z,20.4
2022-08-17T18:19:33.405Z,20.4
2022-08-17T18:21:38.430Z,20.3
2022-08-17T18:23:40.402Z,20.3
2022-08-17T18:27:44.328Z,20.2
2022-08-17T18:29:46.247Z,20.1
2022-08-17T18:31:48.188Z,20.1
2022-08-17T18:33:50.184Z,20.2
2022-08-17T18:35:58.573Z,19.9
2022-08-17T18:39:59.204Z,19.9
2022-08-17T18:42:01.046Z,19.8
2022-08-17T18:44:03.060Z,19.7
2022-08-17T18:46:05.496Z,19.7
2022-08-17T18:48:06.933Z,19.7
2022-08-17T18:50:12.028Z,19.6
2022-08-17T18:52:13.985Z,19.6
2022-08-17T18:54:15.936Z,19.6
2022-08-17T18:55:18.475Z,19.6
2022-08-17T18:57:20.449Z,19.6
2022-08-17T18:59:22.360Z,19.6
2022-08-17T19:01:52.085Z,19.6
2022-08-17T19:03:29.454Z,19.6
2022-08-17T19:05:31.362Z,19.6
2022-08-17T19:07:33.359Z,19.6
2022-08-17T19:11:37.287Z,19.6
2022-08-17T19:13:39.269Z,19.6
2022-08-17T19:15:41.178Z,19.6
2022-08-17T19:17:46.414Z,19.6
2022-08-17T19:19:48.188Z,19.6
2022-08-17T19:21:50.168Z,19.6
2022-08-17T19:23:54.040Z,19.6
2022-08-17T19:29:58.043Z,19.5
2022-08-17T19:36:07.097Z,19.5
2022-08-17T19:38:13.285Z,19.5
2022-08-17T19:46:19.945Z,19.5
2022-08-17T19:51:26.409Z,19.6
2022-08-17T19:53:47.467Z,19.6
2022-08-17T19:55:30.341Z,19.6
2022-08-17T19:57:32.304Z,19.6
2022-08-17T19:59:37.345Z,19.6
2022-08-17T20:01:39.416Z,19.6
2022-08-17T20:07:45.217Z,19.6
2022-08-17T20:09:47.146Z,19.6
2022-08-17T20:11:49.138Z,19.7
2022-08-17T20:17:58.154Z,19.8
2022-08-17T20:22:02.039Z,19.9
2022-08-17T20:24:03.970Z,19.9
2022-08-17T20:28:10.980Z,19.9
2022-08-17T20:34:16.845Z,19.9
2022-08-17T20:36:18.838Z,19.9
2022-08-17T20:40:22.747Z,19.9
2022-08-17T20:42:27.778Z,19.9
2022-08-17T20:44:29.764Z,19.9
2022-08-17T20:46:31.710Z,19.9
2022-08-17T20:50:56.170Z,19.7
2022-08-17T20:52:58.120Z,19.7
2022-08-17T20:55:03.174Z,19.7
2022-08-17T20:57:06.792Z,19.7
2022-08-17T20:59:07.074Z,19.7
2022-08-17T21:01:09.058Z,19.6
2022-08-17T21:03:11.000Z,19.7
2022-08-17T21:05:12.975Z,19.7
2022-08-17T21:07:14.911Z,19.7
2022-08-17T21:09:19.948Z,19.7
2022-08-17T21:11:21.922Z,19.7
2022-08-17T21:13:23.897Z,19.6
2022-08-17T21:15:27.360Z,19.5
2022-08-17T21:17:29.245Z,19.5
2022-08-17T21:19:31.409Z,19.5
2022-08-17T21:23:38.236Z,19.3
2022-08-17T21:25:40.186Z,19.3
2022-08-17T21:27:42.143Z,19.2
2022-08-17T21:29:44.086Z,19.1
2022-08-17T21:33:48.020Z,19
2022-08-17T21:37:55.019Z,19
2022-08-17T21:39:57.079Z,19
2022-08-17T21:41:58.964Z,18.9
2022-08-17T21:43:01.502Z,19
2022-08-17T21:45:03.459Z,19
2022-08-17T21:49:09.116Z,19
2022-08-17T21:51:12.489Z,19
2022-08-17T21:57:18.383Z,19
2022-08-17T21:59:20.341Z,18.9
2022-08-17T22:05:29.349Z,19
2022-08-17T22:07:31.318Z,19
2022-08-17T22:13:37.246Z,18.9
2022-08-17T22:15:39.934Z,18.9
2022-08-17T22:17:41.186Z,18.9
2022-08-17T22:19:46.238Z,18.8
2022-08-17T22:21:48.236Z,18.8
2022-08-17T22:23:50.215Z,18.8
2022-08-17T22:25:52.173Z,18.7
2022-08-17T22:27:54.394Z,18.7
2022-08-17T22:29:57.023Z,18.7
2022-08-17T22:31:58.126Z,18.7
2022-08-17T22:36:05.165Z,18.7
2022-08-17T22:38:07.154Z,18.7
2022-08-17T22:39:09.687Z,18.7
2022-08-17T22:41:11.637Z,18.6
2022-08-17T22:43:13.622Z,18.6
2022-08-17T22:47:20.666Z,18.6
2022-08-17T22:49:22.640Z,18.6
2022-08-17T22:55:28.603Z,18.5
2022-08-17T22:59:32.632Z,18.5
2022-08-17T23:01:37.601Z,18.6
2022-08-17T23:03:39.588Z,18.6
2022-08-17T23:05:41.585Z,18.6
2022-08-17T23:07:43.553Z,18.6
2022-08-17T23:17:56.551Z,18.5
2022-08-17T23:19:58.555Z,18.5
2022-08-17T23:22:00.539Z,18.5
2022-08-17T23:30:11.543Z,18.4
2022-08-17T23:35:18.038Z,18.2
2022-08-17T23:37:20.041Z,18.2
2022-08-17T23:39:24.577Z,18.1
2022-08-17T23:41:24.012Z,18.1
2022-08-17T23:43:29.067Z,18.1
2022-08-17T23:45:31.054Z,18.1
2022-08-17T23:47:33.038Z,18.1
2022-08-17T23:49:35.019Z,18.1
2022-08-17T23:51:37.016Z,18.1
2022-08-17T23:53:39.030Z,18.1
2022-08-17T23:55:40.990Z,18.2
2022-08-17T23:57:46.077Z,18.2
2022-08-17T23:59:48.044Z,18.2
